Terminal Aerodrome Forecast
Issued by NWS Topeka, KS

Home | Current Version | Previous Version | Text Only | Print | Product List | Glossary On
Versions: 1 2 3 4 5 6 7 8 9 10 11 12 13 14 15 16 17 18
000
FTUS43 KTOP 141200 AAA
TAFTOP
TAF AMD
KTOP 141233Z 1413/1512 VRB03KT P6SM SCT250
     FM141500 33008KT P6SM VCTS BKN090CB
      TEMPO 1415/1418 4SM -TSRA SCT030 BKN050CB
     FM141800 34010G17KT P6SM SCT060
     FM150000 35003KT P6SM SKC=

USA.gov is the U.S. government's official web portal to all federal, state and local government web resources and services.